sensor_id;sensor_type;location;lat;lon;timestamp;temperature;humidity
33881;DHT22;20172;47.530;10.256;2022-12-24T00:00:56;10.90;99.90
33881;DHT22;20172;47.530;10.256;2022-12-24T00:03:22;10.80;99.90
33881;DHT22;20172;47.530;10.256;2022-12-24T00:05:47;10.90;99.90
33881;DHT22;20172;47.530;10.256;2022-12-24T00:08:13;11.10;99.90
33881;DHT22;20172;47.530;10.256;2022-12-24T00:10:38;11.00;99.90
33881;DHT22;20172;47.530;10.256;2022-12-24T00:13:04;11.00;99.90
33881;DHT22;20172;47.530;10.256;2022-12-24T00:15:29;11.00;99.90
33881;DHT22;20172;47.530;10.256;2022-12-24T00:17:55;10.90;99.90
33881;DHT22;20172;47.530;10.256;2022-12-24T00:20:20;10.90;99.90
33881;DHT22;20172;47.530;10.256;2022-12-24T00:22:46;10.90;99.90
33881;DHT22;20172;47.530;10.256;2022-12-24T00:25:12;10.90;99.90
33881;DHT22;20172;47.530;10.256;2022-12-24T00:27:37;11.00;99.90
33881;DHT22;20172;47.530;10.256;2022-12-24T00:30:03;11.00;99.90
33881;DHT22;20172;47.530;10.256;2022-12-24T00:32:28;10.90;99.90
33881;DHT22;20172;47.530;10.256;2022-12-24T00:34:54;11.10;99.90
33881;DHT22;20172;47.530;10.256;2022-12-24T00:37:20;11.20;99.90
33881;DHT22;20172;47.530;10.256;2022-12-24T00:39:45;11.10;99.90
33881;DHT22;20172;47.530;10.256;2022-12-24T00:42:11;11.10;99.90
33881;DHT22;20172;47.530;10.256;2022-12-24T00:44:36;11.20;99.90
33881;DHT22;20172;47.530;10.256;2022-12-24T00:47:02;11.10;99.90
33881;DHT22;20172;47.530;10.256;2022-12-24T00:49:27;11.10;99.90
33881;DHT22;20172;47.530;10.256;2022-12-24T00:51:53;11.10;99.90
33881;DHT22;20172;47.530;10.256;2022-12-24T00:54:18;11.10;99.90
33881;DHT22;20172;47.530;10.256;2022-12-24T00:56:44;11.20;99.90
33881;DHT22;20172;47.530;10.256;2022-12-24T00:59:09;11.40;99.90
33881;DHT22;20172;47.530;10.256;2022-12-24T01:01:35;11.40;99.90
33881;DHT22;20172;47.530;10.256;2022-12-24T01:04:01;11.50;99.90
33881;DHT22;20172;47.530;10.256;2022-12-24T01:06:45;11.50;99.90
33881;DHT22;20172;47.530;10.256;2022-12-24T01:09:10;11.60;99.90
33881;DHT22;20172;47.530;10.256;2022-12-24T01:11:36;11.70;99.90
33881;DHT22;20172;47.530;10.256;2022-12-24T01:14:01;11.80;99.90
33881;DHT22;20172;47.530;10.256;2022-12-24T01:16:36;11.80;99.90
33881;DHT22;20172;47.530;10.256;2022-12-24T01:19:02;11.70;99.90
33881;DHT22;20172;47.530;10.256;2022-12-24T01:21:27;11.70;99.90
33881;DHT22;20172;47.530;10.256;2022-12-24T01:23:53;11.70;99.90
33881;DHT22;20172;47.530;10.256;2022-12-24T01:26:19;11.70;99.90
33881;DHT22;20172;47.530;10.256;2022-12-24T01:28:44;11.70;99.90
33881;DHT22;20172;47.530;10.256;2022-12-24T01:31:14;11.80;99.90
33881;DHT22;20172;47.530;10.256;2022-12-24T01:33:40;11.60;99.90
33881;DHT22;20172;47.530;10.256;2022-12-24T01:36:07;11.50;99.90
33881;DHT22;20172;47.530;10.256;2022-12-24T01:38:33;11.50;99.90
33881;DHT22;20172;47.530;10.256;2022-12-24T01:41:00;11.60;99.90
33881;DHT22;20172;47.530;10.256;2022-12-24T01:43:44;11.60;99.90
33881;DHT22;20172;47.530;10.256;2022-12-24T01:48:46;11.40;99.90
33881;DHT22;20172;47.530;10.256;2022-12-24T01:53:44;11.30;99.90
33881;DHT22;20172;47.530;10.256;2022-12-24T01:56:11;11.30;99.90
33881;DHT22;20172;47.530;10.256;2022-12-24T01:58:37;11.40;99.90
33881;DHT22;20172;47.530;10.256;2022-12-24T02:01:04;11.30;99.90
33881;DHT22;20172;47.530;10.256;2022-12-24T02:03:29;11.20;99.90
33881;DHT22;20172;47.530;10.256;2022-12-24T02:05:55;11.20;99.90
33881;DHT22;20172;47.530;10.256;2022-12-24T02:08:21;11.20;99.90
33881;DHT22;20172;47.530;10.256;2022-12-24T02:10:47;11.20;99.90
33881;DHT22;20172;47.530;10.256;2022-12-24T02:13:13;11.10;99.90
33881;DHT22;20172;47.530;10.256;2022-12-24T02:18:10;11.10;99.90
33881;DHT22;20172;47.530;10.256;2022-12-24T02:31:04;11.20;99.90
33881;DHT22;20172;47.530;10.256;2022-12-24T02:33:41;11.20;99.90
33881;DHT22;20172;47.530;10.256;2022-12-24T02:36:19;11.10;99.90
33881;DHT22;20172;47.530;10.256;2022-12-24T02:38:57;11.20;99.90
33881;DHT22;20172;47.530;10.256;2022-12-24T02:41:25;11.10;99.90
33881;DHT22;20172;47.530;10.256;2022-12-24T02:44:13;11.20;99.90
33881;DHT22;20172;47.530;10.256;2022-12-24T02:46:39;11.40;99.90
33881;DHT22;20172;47.530;10.256;2022-12-24T02:49:04;11.50;99.90
33881;DHT22;20172;47.530;10.256;2022-12-24T02:51:30;11.50;99.90
33881;DHT22;20172;47.530;10.256;2022-12-24T02:53:55;11.50;99.90
33881;DHT22;20172;47.530;10.256;2022-12-24T03:06:45;11.10;99.90
33881;DHT22;20172;47.530;10.256;2022-12-24T03:09:23;11.00;99.90
33881;DHT22;20172;47.530;10.256;2022-12-24T03:11:53;10.80;99.90
33881;DHT22;20172;47.530;10.256;2022-12-24T03:14:19;10.70;99.90
33881;DHT22;20172;47.530;10.256;2022-12-24T03:16:45;10.50;99.90
33881;DHT22;20172;47.530;10.256;2022-12-24T03:19:11;10.40;99.90
33881;DHT22;20172;47.530;10.256;2022-12-24T03:21:37;10.40;99.90
33881;DHT22;20172;47.530;10.256;2022-12-24T03:24:04;10.30;99.90
33881;DHT22;20172;47.530;10.256;2022-12-24T03:26:29;10.20;99.90
33881;DHT22;20172;47.530;10.256;2022-12-24T03:28:56;10.20;99.90
33881;DHT22;20172;47.530;10.256;2022-12-24T03:31:22;10.30;99.90
33881;DHT22;20172;47.530;10.256;2022-12-24T03:33:47;10.30;99.90
33881;DHT22;20172;47.530;10.256;2022-12-24T03:36:13;10.30;99.90
33881;DHT22;20172;47.530;10.256;2022-12-24T03:38:39;10.30;99.90
33881;DHT22;20172;47.530;10.256;2022-12-24T03:41:04;10.30;99.90
33881;DHT22;20172;47.530;10.256;2022-12-24T03:43:30;10.10;99.90
33881;DHT22;20172;47.530;10.256;2022-12-24T03:45:56;10.20;99.90
33881;DHT22;20172;47.530;10.256;2022-12-24T03:48:21;10.30;99.90
33881;DHT22;20172;47.530;10.256;2022-12-24T03:50:47;10.20;99.90
33881;DHT22;20172;47.530;10.256;2022-12-24T03:53:12;10.20;99.90
33881;DHT22;20172;47.530;10.256;2022-12-24T03:55:38;10.00;99.90
33881;DHT22;20172;47.530;10.256;2022-12-24T03:58:03;9.90;99.90
33881;DHT22;20172;47.530;10.256;2022-12-24T04:00:29;9.90;99.90
33881;DHT22;20172;47.530;10.256;2022-12-24T04:02:54;9.80;99.90
33881;DHT22;20172;47.530;10.256;2022-12-24T04:05:20;9.80;99.90
33881;DHT22;20172;47.530;10.256;2022-12-24T04:07:45;9.70;99.90
33881;DHT22;20172;47.530;10.256;2022-12-24T04:10:12;9.80;99.90
33881;DHT22;20172;47.530;10.256;2022-12-24T04:12:37;9.70;99.90
33881;DHT22;20172;47.530;10.256;2022-12-24T04:15:03;9.60;99.90
33881;DHT22;20172;47.530;10.256;2022-12-24T04:17:29;9.60;99.90
33881;DHT22;20172;47.530;10.256;2022-12-24T04:19:54;9.50;99.90
33881;DHT22;20172;47.530;10.256;2022-12-24T04:22:20;9.40;99.90
33881;DHT22;20172;47.530;10.256;2022-12-24T04:24:45;9.50;99.90
33881;DHT22;20172;47.530;10.256;2022-12-24T04:27:14;9.60;99.90
33881;DHT22;20172;47.530;10.256;2022-12-24T04:29:40;9.50;99.90
33881;DHT22;20172;47.530;10.256;2022-12-24T04:32:05;9.50;99.90
33881;DHT22;20172;47.530;10.256;2022-12-24T04:34:31;9.40;99.90
33881;DHT22;20172;47.530;10.256;2022-12-24T04:36:56;9.50;99.90
33881;DHT22;20172;47.530;10.256;2022-12-24T04:39:22;9.40;99.90
33881;DHT22;20172;47.530;10.256;2022-12-24T04:41:47;9.30;99.90
33881;DHT22;20172;47.530;10.256;2022-12-24T04:44:13;9.50;99.90
33881;DHT22;20172;47.530;10.256;2022-12-24T04:46:38;9.50;99.90
33881;DHT22;20172;47.530;10.256;2022-12-24T04:49:06;9.40;99.90
33881;DHT22;20172;47.530;10.256;2022-12-24T04:51:32;9.40;99.90
33881;DHT22;20172;47.530;10.256;2022-12-24T04:53:57;9.40;99.90
33881;DHT22;20172;47.530;10.256;2022-12-24T04:56:24;9.30;99.90
33881;DHT22;20172;47.530;10.256;2022-12-24T04:58:49;9.20;99.90
33881;DHT22;20172;47.530;10.256;2022-12-24T05:01:22;9.20;99.90
33881;DHT22;20172;47.530;10.256;2022-12-24T05:03:48;9.20;99.90
33881;DHT22;20172;47.530;10.256;2022-12-24T05:06:15;9.10;99.90
33881;DHT22;20172;47.530;10.256;2022-12-24T05:08:41;9.00;99.90
33881;DHT22;20172;47.530;10.256;2022-12-24T05:11:08;9.10;99.90
33881;DHT22;20172;47.530;10.256;2022-12-24T05:13:33;9.10;99.90
33881;DHT22;20172;47.530;10.256;2022-12-24T05:15:59;9.10;99.90
33881;DHT22;20172;47.530;10.256;2022-12-24T05:18:24;9.00;99.90
33881;DHT22;20172;47.530;10.256;2022-12-24T05:20:50;9.10;99.90
33881;DHT22;20172;47.530;10.256;2022-12-24T05:23:16;9.00;99.90
33881;DHT22;20172;47.530;10.256;2022-12-24T05:26:00;9.10;99.90
33881;DHT22;20172;47.530;10.256;2022-12-24T05:28:44;9.10;99.90
33881;DHT22;20172;47.530;10.256;2022-12-24T05:31:10;9.00;99.90
33881;DHT22;20172;47.530;10.256;2022-12-24T05:33:35;9.00;99.90
33881;DHT22;20172;47.530;10.256;2022-12-24T05:36:01;9.00;99.90
33881;DHT22;20172;47.530;10.256;2022-12-24T05:38:26;9.00;99.90
33881;DHT22;20172;47.530;10.256;2022-12-24T05:40:52;9.00;99.90
33881;DHT22;20172;47.530;10.256;2022-12-24T05:43:17;9.00;99.90
33881;DHT22;20172;47.530;10.256;2022-12-24T05:45:43;9.00;99.90
33881;DHT22;20172;47.530;10.256;2022-12-24T05:48:08;9.10;99.90
33881;DHT22;20172;47.530;10.256;2022-12-24T05:50:34;9.10;99.90
33881;DHT22;20172;47.530;10.256;2022-12-24T05:53:00;9.10;99.90
33881;DHT22;20172;47.530;10.256;2022-12-24T05:55:25;9.10;99.90
33881;DHT22;20172;47.530;10.256;2022-12-24T05:57:51;9.00;99.90
33881;DHT22;20172;47.530;10.256;2022-12-24T06:00:16;9.00;99.90
33881;DHT22;20172;47.530;10.256;2022-12-24T06:02:44;9.00;99.90
33881;DHT22;20172;47.530;10.256;2022-12-24T06:05:10;9.00;99.90
33881;DHT22;20172;47.530;10.256;2022-12-24T06:07:35;8.90;99.90
33881;DHT22;20172;47.530;10.256;2022-12-24T06:10:01;8.90;99.90
33881;DHT22;20172;47.530;10.256;2022-12-24T06:12:27;8.80;99.90
33881;DHT22;20172;47.530;10.256;2022-12-24T06:14:52;8.80;99.90
33881;DHT22;20172;47.530;10.256;2022-12-24T06:17:17;8.80;99.90
33881;DHT22;20172;47.530;10.256;2022-12-24T06:19:43;8.90;99.90
33881;DHT22;20172;47.530;10.256;2022-12-24T06:22:08;8.80;99.90
33881;DHT22;20172;47.530;10.256;2022-12-24T06:24:34;8.80;99.90
33881;DHT22;20172;47.530;10.256;2022-12-24T06:26:59;8.90;99.90
33881;DHT22;20172;47.530;10.256;2022-12-24T06:29:25;8.90;99.90
33881;DHT22;20172;47.530;10.256;2022-12-24T06:31:50;8.80;99.90
33881;DHT22;20172;47.530;10.256;2022-12-24T06:34:16;8.70;99.90
33881;DHT22;20172;47.530;10.256;2022-12-24T06:36:41;8.80;99.90
33881;DHT22;20172;47.530;10.256;2022-12-24T06:39:07;8.80;99.90
33881;DHT22;20172;47.530;10.256;2022-12-24T06:41:32;8.80;99.90
33881;DHT22;20172;47.530;10.256;2022-12-24T06:43:58;8.70;99.90
33881;DHT22;20172;47.530;10.256;2022-12-24T06:46:24;8.60;99.90
33881;DHT22;20172;47.530;10.256;2022-12-24T06:48:50;8.60;99.90
33881;DHT22;20172;47.530;10.256;2022-12-24T06:51:16;8.70;99.90
33881;DHT22;20172;47.530;10.256;2022-12-24T06:53:43;8.70;99.90
33881;DHT22;20172;47.530;10.256;2022-12-24T06:56:10;8.60;99.90
33881;DHT22;20172;47.530;10.256;2022-12-24T06:58:36;8.60;99.90
33881;DHT22;20172;47.530;10.256;2022-12-24T07:01:02;8.60;99.90
33881;DHT22;20172;47.530;10.256;2022-12-24T07:03:28;8.70;99.90
33881;DHT22;20172;47.530;10.256;2022-12-24T07:05:54;8.80;99.90
33881;DHT22;20172;47.530;10.256;2022-12-24T07:08:19;8.80;99.90
33881;DHT22;20172;47.530;10.256;2022-12-24T07:10:46;8.70;99.90
33881;DHT22;20172;47.530;10.256;2022-12-24T07:13:12;8.60;99.90
33881;DHT22;20172;47.530;10.256;2022-12-24T07:15:38;8.50;99.90
33881;DHT22;20172;47.530;10.256;2022-12-24T07:18:03;8.40;99.90
33881;DHT22;20172;47.530;10.256;2022-12-24T07:20:29;8.40;99.90
33881;DHT22;20172;47.530;10.256;2022-12-24T07:22:54;8.40;99.90
33881;DHT22;20172;47.530;10.256;2022-12-24T07:25:20;8.50;99.90
33881;DHT22;20172;47.530;10.256;2022-12-24T07:27:45;8.70;99.90
33881;DHT22;20172;47.530;10.256;2022-12-24T07:30:11;8.60;99.90
33881;DHT22;20172;47.530;10.256;2022-12-24T07:32:36;8.50;99.90
33881;DHT22;20172;47.530;10.256;2022-12-24T07:35:02;8.50;99.90
33881;DHT22;20172;47.530;10.256;2022-12-24T07:37:27;8.50;99.90
33881;DHT22;20172;47.530;10.256;2022-12-24T07:39:53;8.50;99.90
33881;DHT22;20172;47.530;10.256;2022-12-24T07:42:18;8.50;99.90
33881;DHT22;20172;47.530;10.256;2022-12-24T07:44:44;8.50;99.90
33881;DHT22;20172;47.530;10.256;2022-12-24T07:47:09;8.40;99.90
33881;DHT22;20172;47.530;10.256;2022-12-24T07:49:35;8.30;99.90
33881;DHT22;20172;47.530;10.256;2022-12-24T07:52:01;8.30;99.90
33881;DHT22;20172;47.530;10.256;2022-12-24T07:54:26;8.20;99.90
33881;DHT22;20172;47.530;10.256;2022-12-24T07:56:52;8.20;99.90
33881;DHT22;20172;47.530;10.256;2022-12-24T07:59:17;8.30;99.90
33881;DHT22;20172;47.530;10.256;2022-12-24T08:01:43;8.20;99.90
33881;DHT22;20172;47.530;10.256;2022-12-24T08:04:09;8.20;99.90
33881;DHT22;20172;47.530;10.256;2022-12-24T08:06:35;8.20;99.90
33881;DHT22;20172;47.530;10.256;2022-12-24T08:09:00;8.00;99.90
33881;DHT22;20172;47.530;10.256;2022-12-24T08:11:26;7.90;99.90
33881;DHT22;20172;47.530;10.256;2022-12-24T08:13:52;8.00;99.90
33881;DHT22;20172;47.530;10.256;2022-12-24T08:16:17;7.90;99.90
33881;DHT22;20172;47.530;10.256;2022-12-24T08:18:43;7.90;99.90
33881;DHT22;20172;47.530;10.256;2022-12-24T08:21:08;7.80;99.90
33881;DHT22;20172;47.530;10.256;2022-12-24T08:23:37;7.80;99.90
33881;DHT22;20172;47.530;10.256;2022-12-24T08:26:05;7.80;99.90
33881;DHT22;20172;47.530;10.256;2022-12-24T08:28:30;7.80;99.90
33881;DHT22;20172;47.530;10.256;2022-12-24T08:30:56;7.80;99.90
33881;DHT22;20172;47.530;10.256;2022-12-24T08:33:21;7.70;99.90
33881;DHT22;20172;47.530;10.256;2022-12-24T08:35:47;7.70;99.90
33881;DHT22;20172;47.530;10.256;2022-12-24T08:38:13;7.70;99.90
33881;DHT22;20172;47.530;10.256;2022-12-24T08:40:38;7.70;99.90
33881;DHT22;20172;47.530;10.256;2022-12-24T08:43:04;7.80;99.90
33881;DHT22;20172;47.530;10.256;2022-12-24T08:45:29;7.80;99.90
33881;DHT22;20172;47.530;10.256;2022-12-24T08:47:57;7.80;99.90
33881;DHT22;20172;47.530;10.256;2022-12-24T08:50:22;7.80;99.90
33881;DHT22;20172;47.530;10.256;2022-12-24T08:52:48;7.90;99.90
33881;DHT22;20172;47.530;10.256;2022-12-24T08:55:14;7.80;99.90
33881;DHT22;20172;47.530;10.256;2022-12-24T08:57:39;7.90;99.90
33881;DHT22;20172;47.530;10.256;2022-12-24T09:00:05;7.70;99.90
33881;DHT22;20172;47.530;10.256;2022-12-24T09:02:31;7.70;99.90
33881;DHT22;20172;47.530;10.256;2022-12-24T09:04:56;7.80;99.90
33881;DHT22;20172;47.530;10.256;2022-12-24T09:07:22;7.80;99.90
33881;DHT22;20172;47.530;10.256;2022-12-24T09:09:47;7.80;99.90
33881;DHT22;20172;47.530;10.256;2022-12-24T09:12:13;7.90;99.90
33881;DHT22;20172;47.530;10.256;2022-12-24T09:14:38;8.00;99.90
33881;DHT22;20172;47.530;10.256;2022-12-24T09:17:07;8.00;99.90
33881;DHT22;20172;47.530;10.256;2022-12-24T09:19:32;7.90;99.90
33881;DHT22;20172;47.530;10.256;2022-12-24T09:21:58;7.80;99.90
33881;DHT22;20172;47.530;10.256;2022-12-24T09:24:23;7.90;99.90
33881;DHT22;20172;47.530;10.256;2022-12-24T09:26:49;7.90;99.90
33881;DHT22;20172;47.530;10.256;2022-12-24T09:29:14;7.90;99.90
33881;DHT22;20172;47.530;10.256;2022-12-24T09:31:40;7.90;99.90
33881;DHT22;20172;47.530;10.256;2022-12-24T09:34:06;7.90;99.90
33881;DHT22;20172;47.530;10.256;2022-12-24T09:36:32;7.90;99.90
33881;DHT22;20172;47.530;10.256;2022-12-24T09:38:58;7.80;99.90
33881;DHT22;20172;47.530;10.256;2022-12-24T09:43:59;7.80;99.90
33881;DHT22;20172;47.530;10.256;2022-12-24T09:46:30;7.80;99.90
33881;DHT22;20172;47.530;10.256;2022-12-24T09:48:57;7.80;99.90
33881;DHT22;20172;47.530;10.256;2022-12-24T09:54:02;7.70;99.90
33881;DHT22;20172;47.530;10.256;2022-12-24T09:56:29;7.80;99.90
33881;DHT22;20172;47.530;10.256;2022-12-24T09:59:03;7.80;99.90
33881;DHT22;20172;47.530;10.256;2022-12-24T10:01:29;7.80;99.90
33881;DHT22;20172;47.530;10.256;2022-12-24T10:03:57;7.80;99.90
33881;DHT22;20172;47.530;10.256;2022-12-24T10:06:23;7.80;99.90
33881;DHT22;20172;47.530;10.256;2022-12-24T10:11:17;7.80;99.90
33881;DHT22;20172;47.530;10.256;2022-12-24T10:16:17;7.90;99.90
33881;DHT22;20172;47.530;10.256;2022-12-24T10:21:23;8.10;99.90
33881;DHT22;20172;47.530;10.256;2022-12-24T10:24:03;8.20;99.90
33881;DHT22;20172;47.530;10.256;2022-12-24T10:26:34;8.10;99.90
33881;DHT22;20172;47.530;10.256;2022-12-24T10:29:05;8.20;99.90
33881;DHT22;20172;47.530;10.256;2022-12-24T10:31:40;8.30;99.90
33881;DHT22;20172;47.530;10.256;2022-12-24T10:34:18;8.40;99.90
33881;DHT22;20172;47.530;10.256;2022-12-24T10:36:46;8.50;99.90
33881;DHT22;20172;47.530;10.256;2022-12-24T10:39:18;8.60;99.90
33881;DHT22;20172;47.530;10.256;2022-12-24T10:41:45;8.60;99.90
33881;DHT22;20172;47.530;10.256;2022-12-24T10:44:14;8.60;99.90
33881;DHT22;20172;47.530;10.256;2022-12-24T10:46:41;8.60;99.90
33881;DHT22;20172;47.530;10.256;2022-12-24T10:49:10;8.60;99.90
33881;DHT22;20172;47.530;10.256;2022-12-24T10:51:56;8.50;99.90
33881;DHT22;20172;47.530;10.256;2022-12-24T10:54:25;8.50;99.90
33881;DHT22;20172;47.530;10.256;2022-12-24T10:56:54;8.50;99.90
33881;DHT22;20172;47.530;10.256;2022-12-24T10:59:30;8.60;99.90
33881;DHT22;20172;47.530;10.256;2022-12-24T11:01:58;8.70;99.90
33881;DHT22;20172;47.530;10.256;2022-12-24T11:04:25;8.80;99.90
33881;DHT22;20172;47.530;10.256;2022-12-24T11:06:59;9.00;99.90
33881;DHT22;20172;47.530;10.256;2022-12-24T11:09:26;9.10;99.90
33881;DHT22;20172;47.530;10.256;2022-12-24T11:11:53;9.10;99.90
33881;DHT22;20172;47.530;10.256;2022-12-24T11:14:19;9.20;99.90
33881;DHT22;20172;47.530;10.256;2022-12-24T11:16:52;9.30;99.90
33881;DHT22;20172;47.530;10.256;2022-12-24T11:19:19;9.60;99.90
33881;DHT22;20172;47.530;10.256;2022-12-24T11:21:48;9.70;99.90
33881;DHT22;20172;47.530;10.256;2022-12-24T11:24:26;9.50;99.90
33881;DHT22;20172;47.530;10.256;2022-12-24T11:26:52;9.60;99.90
33881;DHT22;20172;47.530;10.256;2022-12-24T11:29:19;9.60;99.90
33881;DHT22;20172;47.530;10.256;2022-12-24T11:31:45;9.50;99.90
33881;DHT22;20172;47.530;10.256;2022-12-24T11:36:53;9.70;99.90
33881;DHT22;20172;47.530;10.256;2022-12-24T11:39:19;9.40;99.90
33881;DHT22;20172;47.530;10.256;2022-12-24T11:41:45;9.60;99.90
33881;DHT22;20172;47.530;10.256;2022-12-24T11:44:11;9.40;99.90
33881;DHT22;20172;47.530;10.256;2022-12-24T11:46:38;9.30;99.90
33881;DHT22;20172;47.530;10.256;2022-12-24T11:49:05;9.30;99.90
33881;DHT22;20172;47.530;10.256;2022-12-24T11:51:38;9.20;99.90
33881;DHT22;20172;47.530;10.256;2022-12-24T11:54:15;9.20;99.90
33881;DHT22;20172;47.530;10.256;2022-12-24T11:56:45;9.20;99.90
33881;DHT22;20172;47.530;10.256;2022-12-24T11:59:14;9.20;99.90
33881;DHT22;20172;47.530;10.256;2022-12-24T12:01:48;9.30;99.90
33881;DHT22;20172;47.530;10.256;2022-12-24T12:04:16;9.30;99.90
33881;DHT22;20172;47.530;10.256;2022-12-24T12:14:52;9.50;99.90
33881;DHT22;20172;47.530;10.256;2022-12-24T12:20:02;9.60;99.90
33881;DHT22;20172;47.530;10.256;2022-12-24T12:22:31;9.60;99.90
33881;DHT22;20172;47.530;10.256;2022-12-24T12:24:59;9.50;99.90
33881;DHT22;20172;47.530;10.256;2022-12-24T12:27:27;9.50;99.90
33881;DHT22;20172;47.530;10.256;2022-12-24T12:30:06;9.40;99.90
33881;DHT22;20172;47.530;10.256;2022-12-24T12:32:46;9.40;99.90
33881;DHT22;20172;47.530;10.256;2022-12-24T12:37:40;9.40;99.90
33881;DHT22;20172;47.530;10.256;2022-12-24T12:40:11;9.40;99.90
33881;DHT22;20172;47.530;10.256;2022-12-24T12:42:37;9.50;99.90
33881;DHT22;20172;47.530;10.256;2022-12-24T12:55:31;9.70;99.90
33881;DHT22;20172;47.530;10.256;2022-12-24T12:57:59;9.50;99.90
33881;DHT22;20172;47.530;10.256;2022-12-24T13:00:25;9.40;99.90
33881;DHT22;20172;47.530;10.256;2022-12-24T13:05:37;9.50;99.90
33881;DHT22;20172;47.530;10.256;2022-12-24T13:20:45;9.80;99.90
33881;DHT22;20172;47.530;10.256;2022-12-24T13:23:12;9.70;99.90
33881;DHT22;20172;47.530;10.256;2022-12-24T13:25:40;9.60;99.90
33881;DHT22;20172;47.530;10.256;2022-12-24T13:30:41;9.40;99.90
33881;DHT22;20172;47.530;10.256;2022-12-24T13:33:13;9.20;99.90
33881;DHT22;20172;47.530;10.256;2022-12-24T13:35:56;9.20;99.90
33881;DHT22;20172;47.530;10.256;2022-12-24T13:40:51;9.30;99.90
33881;DHT22;20172;47.530;10.256;2022-12-24T13:43:17;9.30;99.90
33881;DHT22;20172;47.530;10.256;2022-12-24T13:45:44;9.30;99.90
33881;DHT22;20172;47.530;10.256;2022-12-24T13:53:00;9.20;99.90
33881;DHT22;20172;47.530;10.256;2022-12-24T13:55:26;9.10;99.90
33881;DHT22;20172;47.530;10.256;2022-12-24T14:02:47;9.00;99.90
33881;DHT22;20172;47.530;10.256;2022-12-24T14:07:52;8.90;99.90
33881;DHT22;20172;47.530;10.256;2022-12-24T14:10:19;9.00;99.90
33881;DHT22;20172;47.530;10.256;2022-12-24T14:12:47;9.00;99.90
33881;DHT22;20172;47.530;10.256;2022-12-24T14:17:57;9.30;99.90
33881;DHT22;20172;47.530;10.256;2022-12-24T14:20:22;9.20;99.90
33881;DHT22;20172;47.530;10.256;2022-12-24T14:22:48;9.10;99.90
33881;DHT22;20172;47.530;10.256;2022-12-24T14:25:18;9.30;99.90
33881;DHT22;20172;47.530;10.256;2022-12-24T14:27:45;9.30;99.90
33881;DHT22;20172;47.530;10.256;2022-12-24T14:32:39;9.20;99.90
33881;DHT22;20172;47.530;10.256;2022-12-24T14:37:31;8.90;99.90
33881;DHT22;20172;47.530;10.256;2022-12-24T14:39:57;9.00;99.90
33881;DHT22;20172;47.530;10.256;2022-12-24T14:55:39;9.10;99.90
33881;DHT22;20172;47.530;10.256;2022-12-24T15:00:49;9.10;99.90
33881;DHT22;20172;47.530;10.256;2022-12-24T15:03:17;9.10;99.90
33881;DHT22;20172;47.530;10.256;2022-12-24T15:05:43;9.10;99.90
33881;DHT22;20172;47.530;10.256;2022-12-24T15:08:11;9.00;99.90
33881;DHT22;20172;47.530;10.256;2022-12-24T15:10:40;9.10;99.90
33881;DHT22;20172;47.530;10.256;2022-12-24T15:15:51;9.00;99.90
33881;DHT22;20172;47.530;10.256;2022-12-24T15:18:18;8.90;99.90
33881;DHT22;20172;47.530;10.256;2022-12-24T15:20:45;8.80;99.90
33881;DHT22;20172;47.530;10.256;2022-12-24T15:23:26;8.80;99.90
33881;DHT22;20172;47.530;10.256;2022-12-24T15:26:16;8.70;99.90
33881;DHT22;20172;47.530;10.256;2022-12-24T15:28:39;8.70;99.90
33881;DHT22;20172;47.530;10.256;2022-12-24T15:31:11;8.70;99.90
33881;DHT22;20172;47.530;10.256;2022-12-24T15:33:37;8.60;99.90
33881;DHT22;20172;47.530;10.256;2022-12-24T15:36:04;8.60;99.90
33881;DHT22;20172;47.530;10.256;2022-12-24T15:40:56;8.70;99.90
33881;DHT22;20172;47.530;10.256;2022-12-24T15:43:22;8.60;99.90
33881;DHT22;20172;47.530;10.256;2022-12-24T15:45:48;8.60;99.90
33881;DHT22;20172;47.530;10.256;2022-12-24T15:48:21;8.60;99.90
33881;DHT22;20172;47.530;10.256;2022-12-24T15:50:57;8.60;99.90
33881;DHT22;20172;47.530;10.256;2022-12-24T15:53:28;8.60;99.90
33881;DHT22;20172;47.530;10.256;2022-12-24T15:56:26;8.60;99.90
33881;DHT22;20172;47.530;10.256;2022-12-24T15:58:43;8.60;99.90
33881;DHT22;20172;47.530;10.256;2022-12-24T16:03:53;8.60;99.90
33881;DHT22;20172;47.530;10.256;2022-12-24T16:06:19;8.70;99.90
33881;DHT22;20172;47.530;10.256;2022-12-24T16:08:45;8.80;99.90
33881;DHT22;20172;47.530;10.256;2022-12-24T16:13:40;8.70;99.90
33881;DHT22;20172;47.530;10.256;2022-12-24T16:16:13;8.70;99.90
33881;DHT22;20172;47.530;10.256;2022-12-24T16:18:43;8.60;99.90
33881;DHT22;20172;47.530;10.256;2022-12-24T16:21:17;8.60;99.90
33881;DHT22;20172;47.530;10.256;2022-12-24T16:23:47;8.60;99.90
33881;DHT22;20172;47.530;10.256;2022-12-24T16:26:13;8.70;99.90
33881;DHT22;20172;47.530;10.256;2022-12-24T16:28:39;8.80;99.90
33881;DHT22;20172;47.530;10.256;2022-12-24T16:31:04;8.70;99.90
33881;DHT22;20172;47.530;10.256;2022-12-24T16:33:32;8.60;99.90
33881;DHT22;20172;47.530;10.256;2022-12-24T16:35:58;8.60;99.90
33881;DHT22;20172;47.530;10.256;2022-12-24T16:38:23;8.70;99.90
33881;DHT22;20172;47.530;10.256;2022-12-24T16:40:49;8.80;99.90
33881;DHT22;20172;47.530;10.256;2022-12-24T16:43:15;8.90;99.90
33881;DHT22;20172;47.530;10.256;2022-12-24T16:46:00;8.90;99.90
33881;DHT22;20172;47.530;10.256;2022-12-24T16:48:25;8.70;99.90
33881;DHT22;20172;47.530;10.256;2022-12-24T16:50:51;8.80;99.90
33881;DHT22;20172;47.530;10.256;2022-12-24T16:53:17;8.70;99.90
33881;DHT22;20172;47.530;10.256;2022-12-24T16:55:43;8.70;99.90
33881;DHT22;20172;47.530;10.256;2022-12-24T16:58:13;8.90;99.90
33881;DHT22;20172;47.530;10.256;2022-12-24T17:00:40;8.80;99.90
33881;DHT22;20172;47.530;10.256;2022-12-24T17:03:06;8.70;99.90
33881;DHT22;20172;47.530;10.256;2022-12-24T17:05:31;8.80;99.90
33881;DHT22;20172;47.530;10.256;2022-12-24T17:08:00;8.80;99.90
33881;DHT22;20172;47.530;10.256;2022-12-24T17:10:26;8.80;99.90
33881;DHT22;20172;47.530;10.256;2022-12-24T17:12:51;8.80;99.90
33881;DHT22;20172;47.530;10.256;2022-12-24T17:15:17;8.70;99.90
33881;DHT22;20172;47.530;10.256;2022-12-24T17:17:42;8.70;99.90
33881;DHT22;20172;47.530;10.256;2022-12-24T17:20:08;8.70;99.90
33881;DHT22;20172;47.530;10.256;2022-12-24T17:22:34;8.70;99.90
33881;DHT22;20172;47.530;10.256;2022-12-24T17:25:00;8.80;99.90
33881;DHT22;20172;47.530;10.256;2022-12-24T17:27:25;8.80;99.90
33881;DHT22;20172;47.530;10.256;2022-12-24T17:29:50;8.80;99.90
33881;DHT22;20172;47.530;10.256;2022-12-24T17:32:16;8.80;99.90
33881;DHT22;20172;47.530;10.256;2022-12-24T17:34:42;8.70;99.90
33881;DHT22;20172;47.530;10.256;2022-12-24T17:37:07;8.70;99.90
33881;DHT22;20172;47.530;10.256;2022-12-24T17:39:32;8.70;99.90
33881;DHT22;20172;47.530;10.256;2022-12-24T17:41:58;8.70;99.90